sensor_id;sensor_type;location;lat;lon;timestamp;pressure;altitude;pressure_sealevel;temperature;humidity
39141;BME280;24875;48.436;10.298;2022-09-03T00:02:18;95969.53;;;16.73;87.79
39141;BME280;24875;48.436;10.298;2022-09-03T00:04:50;95980.16;;;16.73;84.56
39141;BME280;24875;48.436;10.298;2022-09-03T00:07:27;95974.00;;;16.72;88.86
39141;BME280;24875;48.436;10.298;2022-09-03T00:10:01;95972.03;;;16.68;86.81
39141;BME280;24875;48.436;10.298;2022-09-03T00:12:32;95963.28;;;16.61;86.16
39141;BME280;24875;48.436;10.298;2022-09-03T00:15:03;95961.53;;;16.55;83.14
39141;BME280;24875;48.436;10.298;2022-09-03T00:17:34;95962.66;;;16.65;84.58
39141;BME280;24875;48.436;10.298;2022-09-03T00:20:05;95956.53;;;16.65;84.90
39141;BME280;24875;48.436;10.298;2022-09-03T00:22:36;95961.97;;;16.70;84.98
39141;BME280;24875;48.436;10.298;2022-09-03T00:25:08;95957.84;;;16.56;84.36
39141;BME280;24875;48.436;10.298;2022-09-03T00:27:39;95963.41;;;16.48;86.06
39141;BME280;24875;48.436;10.298;2022-09-03T00:30:09;95956.22;;;16.55;86.78
39141;BME280;24875;48.436;10.298;2022-09-03T00:32:40;95956.63;;;16.52;86.04
39141;BME280;24875;48.436;10.298;2022-09-03T00:35:13;95948.88;;;16.50;87.22
39141;BME280;24875;48.436;10.298;2022-09-03T00:37:43;95962.78;;;16.52;85.72
39141;BME280;24875;48.436;10.298;2022-09-03T00:40:18;95955.97;;;16.56;86.16
39141;BME280;24875;48.436;10.298;2022-09-03T00:42:54;95956.94;;;16.62;86.10
39141;BME280;24875;48.436;10.298;2022-09-03T00:45:31;95948.00;;;16.56;86.52
39141;BME280;24875;48.436;10.298;2022-09-03T00:48:07;95940.53;;;16.47;86.52
39141;BME280;24875;48.436;10.298;2022-09-03T00:50:44;95938.09;;;16.21;89.27
39141;BME280;24875;48.436;10.298;2022-09-03T00:53:16;95936.59;;;16.25;87.45
39141;BME280;24875;48.436;10.298;2022-09-03T00:55:48;95938.97;;;16.15;87.65
39141;BME280;24875;48.436;10.298;2022-09-03T00:58:37;95946.78;;;16.10;87.52
39141;BME280;24875;48.436;10.298;2022-09-03T01:01:14;95951.03;;;16.11;87.13
39141;BME280;24875;48.436;10.298;2022-09-03T01:03:50;95949.06;;;16.07;86.39
39141;BME280;24875;48.436;10.298;2022-09-03T01:06:26;95947.81;;;16.09;86.47
39141;BME280;24875;48.436;10.298;2022-09-03T01:09:10;95955.94;;;15.90;86.36
39141;BME280;24875;48.436;10.298;2022-09-03T01:11:46;95960.25;;;15.84;86.25
39141;BME280;24875;48.436;10.298;2022-09-03T01:14:30;95959.25;;;15.85;86.38
39141;BME280;24875;48.436;10.298;2022-09-03T01:17:07;95961.25;;;15.66;86.67
39141;BME280;24875;48.436;10.298;2022-09-03T01:20:01;95961.63;;;15.93;86.67
39141;BME280;24875;48.436;10.298;2022-09-03T01:25:37;95958.81;;;15.88;85.58
39141;BME280;24875;48.436;10.298;2022-09-03T01:28:18;95961.25;;;15.90;86.19
39141;BME280;24875;48.436;10.298;2022-09-03T01:30:54;95954.75;;;15.86;87.46
39141;BME280;24875;48.436;10.298;2022-09-03T01:33:27;95962.16;;;15.78;88.30
39141;BME280;24875;48.436;10.298;2022-09-03T01:36:03;95956.84;;;15.78;88.79
39141;BME280;24875;48.436;10.298;2022-09-03T01:38:37;95957.91;;;15.70;89.43
39141;BME280;24875;48.436;10.298;2022-09-03T01:41:10;95962.47;;;15.63;90.19
39141;BME280;24875;48.436;10.298;2022-09-03T01:44:08;95957.38;;;15.62;89.51
39141;BME280;24875;48.436;10.298;2022-09-03T01:46:42;95955.13;;;15.28;91.05
39141;BME280;24875;48.436;10.298;2022-09-03T01:49:15;95953.53;;;15.14;91.64
39141;BME280;24875;48.436;10.298;2022-09-03T01:51:49;95954.56;;;15.07;92.01
39141;BME280;24875;48.436;10.298;2022-09-03T01:54:29;95949.41;;;15.18;91.82
39141;BME280;24875;48.436;10.298;2022-09-03T01:57:23;95944.50;;;15.28;91.48
39141;BME280;24875;48.436;10.298;2022-09-03T01:59:58;95945.91;;;15.30;92.06
39141;BME280;24875;48.436;10.298;2022-09-03T02:02:27;95943.72;;;15.15;92.14
39141;BME280;24875;48.436;10.298;2022-09-03T02:04:58;95933.31;;;15.13;93.59
39141;BME280;24875;48.436;10.298;2022-09-03T02:07:30;95935.56;;;15.16;92.29
39141;BME280;24875;48.436;10.298;2022-09-03T02:09:59;95933.50;;;15.18;93.08
39141;BME280;24875;48.436;10.298;2022-09-03T02:12:27;95946.53;;;15.20;91.82
39141;BME280;24875;48.436;10.298;2022-09-03T02:14:59;95944.97;;;15.06;91.14
39141;BME280;24875;48.436;10.298;2022-09-03T02:17:27;95935.56;;;15.16;90.67
39141;BME280;24875;48.436;10.298;2022-09-03T02:19:54;95942.88;;;15.27;91.84
39141;BME280;24875;48.436;10.298;2022-09-03T02:22:21;95944.25;;;15.36;92.51
39141;BME280;24875;48.436;10.298;2022-09-03T02:24:48;95947.34;;;15.33;93.66
39141;BME280;24875;48.436;10.298;2022-09-03T02:27:14;95950.16;;;15.38;93.18
39141;BME280;24875;48.436;10.298;2022-09-03T02:29:41;95949.59;;;15.29;93.89
39141;BME280;24875;48.436;10.298;2022-09-03T02:32:09;95958.44;;;15.24;91.93
39141;BME280;24875;48.436;10.298;2022-09-03T02:34:35;95953.94;;;15.18;91.36
39141;BME280;24875;48.436;10.298;2022-09-03T02:37:11;95952.59;;;15.39;91.58
39141;BME280;24875;48.436;10.298;2022-09-03T02:39:38;95957.97;;;15.33;91.43
39141;BME280;24875;48.436;10.298;2022-09-03T02:42:05;95958.13;;;15.38;93.18
39141;BME280;24875;48.436;10.298;2022-09-03T02:44:34;95957.88;;;15.46;92.33
39141;BME280;24875;48.436;10.298;2022-09-03T02:47:04;95959.81;;;15.32;93.26
39141;BME280;24875;48.436;10.298;2022-09-03T02:49:32;95963.84;;;15.35;91.39
39141;BME280;24875;48.436;10.298;2022-09-03T02:52:01;95976.41;;;15.15;92.51
39141;BME280;24875;48.436;10.298;2022-09-03T02:54:30;95979.44;;;15.19;92.71
39141;BME280;24875;48.436;10.298;2022-09-03T02:56:57;95976.41;;;15.15;92.72
39141;BME280;24875;48.436;10.298;2022-09-03T02:59:24;95977.81;;;15.18;91.71
39141;BME280;24875;48.436;10.298;2022-09-03T03:01:52;95979.63;;;15.17;93.35
39141;BME280;24875;48.436;10.298;2022-09-03T03:04:19;95973.53;;;15.17;91.21
39141;BME280;24875;48.436;10.298;2022-09-03T03:06:47;95972.06;;;15.27;91.67
39141;BME280;24875;48.436;10.298;2022-09-03T03:09:14;95978.41;;;15.20;91.59
39141;BME280;24875;48.436;10.298;2022-09-03T03:11:41;95986.38;;;15.26;91.89
39141;BME280;24875;48.436;10.298;2022-09-03T03:14:08;95973.94;;;15.20;94.69
39141;BME280;24875;48.436;10.298;2022-09-03T03:16:35;95974.75;;;15.14;95.28
39141;BME280;24875;48.436;10.298;2022-09-03T03:19:02;95979.28;;;15.07;94.20
39141;BME280;24875;48.436;10.298;2022-09-03T03:21:28;95983.41;;;15.03;94.34
39141;BME280;24875;48.436;10.298;2022-09-03T03:23:56;95985.81;;;15.11;95.34
39141;BME280;24875;48.436;10.298;2022-09-03T03:26:23;95998.09;;;14.93;94.06
39141;BME280;24875;48.436;10.298;2022-09-03T03:28:54;96001.31;;;15.14;94.23
39141;BME280;24875;48.436;10.298;2022-09-03T03:31:22;96008.25;;;15.15;96.05
39141;BME280;24875;48.436;10.298;2022-09-03T03:33:50;96009.66;;;15.24;97.71
39141;BME280;24875;48.436;10.298;2022-09-03T03:36:17;96015.19;;;15.23;97.53
39141;BME280;24875;48.436;10.298;2022-09-03T03:38:44;96017.22;;;15.21;97.88
39141;BME280;24875;48.436;10.298;2022-09-03T03:41:13;96010.69;;;15.23;98.68
39141;BME280;24875;48.436;10.298;2022-09-03T03:43:41;96006.81;;;15.13;98.65
39141;BME280;24875;48.436;10.298;2022-09-03T03:46:08;96007.81;;;15.18;97.28
39141;BME280;24875;48.436;10.298;2022-09-03T03:48:35;95995.41;;;15.06;96.50
39141;BME280;24875;48.436;10.298;2022-09-03T03:51:03;96000.88;;;15.17;97.47
39141;BME280;24875;48.436;10.298;2022-09-03T03:53:31;96002.50;;;15.24;97.69
39141;BME280;24875;48.436;10.298;2022-09-03T03:55:58;96010.66;;;15.29;98.14
39141;BME280;24875;48.436;10.298;2022-09-03T03:58:29;96004.47;;;15.42;98.20
39141;BME280;24875;48.436;10.298;2022-09-03T04:01:03;96013.69;;;15.39;98.92
39141;BME280;24875;48.436;10.298;2022-09-03T04:03:30;96013.13;;;15.24;97.29
39141;BME280;24875;48.436;10.298;2022-09-03T04:05:57;96016.81;;;15.24;99.04
39141;BME280;24875;48.436;10.298;2022-09-03T04:08:25;96015.16;;;15.29;100.00
39141;BME280;24875;48.436;10.298;2022-09-03T04:10:51;96015.41;;;15.21;100.00
39141;BME280;24875;48.436;10.298;2022-09-03T04:13:18;96018.06;;;15.21;98.50
39141;BME280;24875;48.436;10.298;2022-09-03T04:15:46;96010.22;;;15.39;98.01
39141;BME280;24875;48.436;10.298;2022-09-03T04:18:12;96015.16;;;15.29;97.39
39141;BME280;24875;48.436;10.298;2022-09-03T04:20:38;96003.72;;;15.28;96.69
39141;BME280;24875;48.436;10.298;2022-09-03T04:23:05;95993.25;;;15.40;98.22
39141;BME280;24875;48.436;10.298;2022-09-03T04:25:31;95990.66;;;15.27;100.00
39141;BME280;24875;48.436;10.298;2022-09-03T04:27:58;95989.63;;;14.71;99.20
39141;BME280;24875;48.436;10.298;2022-09-03T04:30:24;95992.88;;;14.73;99.25
39141;BME280;24875;48.436;10.298;2022-09-03T04:32:53;96000.97;;;14.91;100.00
39141;BME280;24875;48.436;10.298;2022-09-03T04:35:19;96009.72;;;15.05;100.00
39141;BME280;24875;48.436;10.298;2022-09-03T04:37:46;96013.19;;;15.05;100.00
39141;BME280;24875;48.436;10.298;2022-09-03T04:40:13;96014.97;;;15.18;100.00
39141;BME280;24875;48.436;10.298;2022-09-03T04:42:39;96015.56;;;15.26;100.00
39141;BME280;24875;48.436;10.298;2022-09-03T04:45:07;96014.28;;;15.35;100.00
39141;BME280;24875;48.436;10.298;2022-09-03T04:47:34;96020.22;;;15.37;100.00
39141;BME280;24875;48.436;10.298;2022-09-03T04:50:03;96013.91;;;15.38;100.00
39141;BME280;24875;48.436;10.298;2022-09-03T04:52:30;96018.00;;;15.34;100.00
39141;BME280;24875;48.436;10.298;2022-09-03T04:54:57;96010.63;;;15.36;100.00
39141;BME280;24875;48.436;10.298;2022-09-03T04:57:24;96010.25;;;15.26;100.00
39141;BME280;24875;48.436;10.298;2022-09-03T04:59:51;96018.22;;;15.26;98.34
39141;BME280;24875;48.436;10.298;2022-09-03T05:02:18;96020.63;;;15.40;100.00
39141;BME280;24875;48.436;10.298;2022-09-03T05:04:46;96023.84;;;15.49;100.00
39141;BME280;24875;48.436;10.298;2022-09-03T05:07:13;96019.13;;;15.51;100.00
39141;BME280;24875;48.436;10.298;2022-09-03T05:09:40;96032.66;;;15.43;96.91
39141;BME280;24875;48.436;10.298;2022-09-03T05:12:07;96021.13;;;15.55;100.00
39141;BME280;24875;48.436;10.298;2022-09-03T05:14:33;96025.84;;;15.60;99.93
39141;BME280;24875;48.436;10.298;2022-09-03T05:17:00;96027.66;;;15.66;100.00
39141;BME280;24875;48.436;10.298;2022-09-03T05:19:26;96028.22;;;15.68;100.00
39141;BME280;24875;48.436;10.298;2022-09-03T05:21:52;96039.59;;;15.44;96.97
39141;BME280;24875;48.436;10.298;2022-09-03T05:24:20;96027.22;;;15.69;98.87
39141;BME280;24875;48.436;10.298;2022-09-03T05:26:47;96031.97;;;15.54;96.99
39141;BME280;24875;48.436;10.298;2022-09-03T05:29:14;96036.25;;;15.61;99.88
39141;BME280;24875;48.436;10.298;2022-09-03T05:31:40;96028.94;;;15.57;99.37
39141;BME280;24875;48.436;10.298;2022-09-03T05:34:07;96031.56;;;15.57;98.78
39141;BME280;24875;48.436;10.298;2022-09-03T05:36:35;96023.09;;;15.73;100.00
39141;BME280;24875;48.436;10.298;2022-09-03T05:39:02;96028.06;;;15.63;100.00
39141;BME280;24875;48.436;10.298;2022-09-03T05:41:31;96023.91;;;15.73;100.00
39141;BME280;24875;48.436;10.298;2022-09-03T05:43:58;96022.91;;;15.68;100.00
39141;BME280;24875;48.436;10.298;2022-09-03T05:46:26;96019.59;;;15.79;100.00
39141;BME280;24875;48.436;10.298;2022-09-03T05:48:56;96019.13;;;15.51;100.00
39141;BME280;24875;48.436;10.298;2022-09-03T05:51:23;96004.31;;;15.30;100.00
39141;BME280;24875;48.436;10.298;2022-09-03T05:53:50;96002.50;;;15.18;100.00
39141;BME280;24875;48.436;10.298;2022-09-03T05:56:19;95993.94;;;15.29;100.00
39141;BME280;24875;48.436;10.298;2022-09-03T05:58:48;95990.72;;;15.08;100.00
39141;BME280;24875;48.436;10.298;2022-09-03T06:01:17;96006.84;;;15.06;100.00
39141;BME280;24875;48.436;10.298;2022-09-03T06:03:45;96029.94;;;14.99;100.00
39141;BME280;24875;48.436;10.298;2022-09-03T06:06:13;96018.47;;;15.05;100.00
39141;BME280;24875;48.436;10.298;2022-09-03T06:08:40;96023.56;;;15.07;100.00
39141;BME280;24875;48.436;10.298;2022-09-03T06:11:09;96012.78;;;15.02;100.00
39141;BME280;24875;48.436;10.298;2022-09-03T06:13:35;96031.91;;;15.17;100.00
39141;BME280;24875;48.436;10.298;2022-09-03T06:16:05;96029.03;;;15.31;100.00
39141;BME280;24875;48.436;10.298;2022-09-03T06:18:32;96032.13;;;15.22;100.00
39141;BME280;24875;48.436;10.298;2022-09-03T06:21:00;96047.59;;;15.31;100.00
39141;BME280;24875;48.436;10.298;2022-09-03T06:23:28;96058.75;;;15.52;100.00
39141;BME280;24875;48.436;10.298;2022-09-03T06:26:02;96053.19;;;15.60;100.00
39141;BME280;24875;48.436;10.298;2022-09-03T06:28:29;96050.34;;;15.62;100.00
39141;BME280;24875;48.436;10.298;2022-09-03T06:30:57;96048.66;;;15.74;100.00
39141;BME280;24875;48.436;10.298;2022-09-03T06:33:25;96053.66;;;15.88;100.00
39141;BME280;24875;48.436;10.298;2022-09-03T06:35:53;96047.91;;;15.97;100.00
39141;BME280;24875;48.436;10.298;2022-09-03T06:38:22;96057.16;;;15.88;100.00
39141;BME280;24875;48.436;10.298;2022-09-03T06:40:51;96049.41;;;16.11;100.00
39141;BME280;24875;48.436;10.298;2022-09-03T06:43:17;96061.09;;;16.10;100.00
39141;BME280;24875;48.436;10.298;2022-09-03T06:45:52;96066.06;;;16.31;100.00
39141;BME280;24875;48.436;10.298;2022-09-03T06:48:19;96059.00;;;16.12;100.00
39141;BME280;24875;48.436;10.298;2022-09-03T06:50:54;96061.19;;;16.28;100.00
39141;BME280;24875;48.436;10.298;2022-09-03T06:53:22;96060.94;;;16.36;100.00
39141;BME280;24875;48.436;10.298;2022-09-03T06:55:52;96056.84;;;16.58;100.00
39141;BME280;24875;48.436;10.298;2022-09-03T06:58:18;96052.50;;;16.63;100.00
39141;BME280;24875;48.436;10.298;2022-09-03T07:00:46;96052.25;;;16.71;100.00
39141;BME280;24875;48.436;10.298;2022-09-03T07:03:13;96045.59;;;16.80;100.00
39141;BME280;24875;48.436;10.298;2022-09-03T07:05:40;96042.25;;;16.85;100.00
39141;BME280;24875;48.436;10.298;2022-09-03T07:08:09;96037.13;;;17.08;100.00
39141;BME280;24875;48.436;10.298;2022-09-03T07:10:35;96040.38;;;17.09;100.00
39141;BME280;24875;48.436;10.298;2022-09-03T07:13:02;96038.59;;;17.21;100.00
39141;BME280;24875;48.436;10.298;2022-09-03T07:15:30;96035.31;;;17.19;100.00
39141;BME280;24875;48.436;10.298;2022-09-03T07:17:57;96037.28;;;17.30;100.00
39141;BME280;24875;48.436;10.298;2022-09-03T07:20:24;96033.91;;;17.41;100.00
39141;BME280;24875;48.436;10.298;2022-09-03T07:22:53;96037.72;;;17.63;100.00
39141;BME280;24875;48.436;10.298;2022-09-03T07:25:22;96034.81;;;17.65;100.00
39141;BME280;24875;48.436;10.298;2022-09-03T07:27:48;96031.63;;;17.56;100.00
39141;BME280;24875;48.436;10.298;2022-09-03T07:30:15;96035.19;;;17.68;100.00
39141;BME280;24875;48.436;10.298;2022-09-03T07:32:43;96031.63;;;17.56;100.00
39141;BME280;24875;48.436;10.298;2022-09-03T07:35:11;96027.91;;;17.75;100.00
39141;BME280;24875;48.436;10.298;2022-09-03T07:37:39;96028.75;;;17.87;100.00
39141;BME280;24875;48.436;10.298;2022-09-03T07:40:07;96026.69;;;17.89;100.00
39141;BME280;24875;48.436;10.298;2022-09-03T07:42:36;96030.66;;;17.98;100.00
39141;BME280;24875;48.436;10.298;2022-09-03T07:45:06;96024.63;;;17.91;100.00
39141;BME280;24875;48.436;10.298;2022-09-03T07:47:34;96033.50;;;18.14;100.00
39141;BME280;24875;48.436;10.298;2022-09-03T07:50:01;96029.19;;;18.13;100.00
39141;BME280;24875;48.436;10.298;2022-09-03T07:52:28;96031.56;;;18.33;100.00
39141;BME280;24875;48.436;10.298;2022-09-03T07:54:54;96031.44;;;18.28;100.00
39141;BME280;24875;48.436;10.298;2022-09-03T07:57:21;96031.84;;;18.13;100.00
39141;BME280;24875;48.436;10.298;2022-09-03T07:59:48;96025.06;;;18.29;100.00
39141;BME280;24875;48.436;10.298;2022-09-03T08:02:15;96030.78;;;18.43;100.00
39141;BME280;24875;48.436;10.298;2022-09-03T08:04:41;96042.03;;;18.45;100.00
39141;BME280;24875;48.436;10.298;2022-09-03T08:07:08;96038.66;;;18.38;100.00
39141;BME280;24875;48.436;10.298;2022-09-03T08:09:35;96041.72;;;18.53;100.00
39141;BME280;24875;48.436;10.298;2022-09-03T08:12:02;96044.50;;;18.58;100.00
39141;BME280;24875;48.436;10.298;2022-09-03T08:14:28;96047.97;;;18.59;100.00
39141;BME280;24875;48.436;10.298;2022-09-03T08:16:57;96041.94;;;18.86;100.00
39141;BME280;24875;48.436;10.298;2022-09-03T08:19:24;96042.78;;;18.87;100.00
39141;BME280;24875;48.436;10.298;2022-09-03T08:21:51;96045.47;;;19.09;100.00
39141;BME280;24875;48.436;10.298;2022-09-03T08:24:17;96047.06;;;18.99;100.00
39141;BME280;24875;48.436;10.298;2022-09-03T08:26:45;96042.31;;;19.01;100.00
39141;BME280;24875;48.436;10.298;2022-09-03T08:29:12;96041.84;;;19.15;100.00
39141;BME280;24875;48.436;10.298;2022-09-03T08:31:38;96043.94;;;19.25;100.00
39141;BME280;24875;48.436;10.298;2022-09-03T08:34:06;96041.53;;;19.51;100.00
39141;BME280;24875;48.436;10.298;2022-09-03T08:36:37;96038.19;;;19.56;100.00
39141;BME280;24875;48.436;10.298;2022-09-03T08:39:07;96038.50;;;19.70;100.00
39141;BME280;24875;48.436;10.298;2022-09-03T08:41:44;96041.16;;;19.70;100.00
39141;BME280;24875;48.436;10.298;2022-09-03T08:44:21;96045.91;;;20.08;96.52
39141;BME280;24875;48.436;10.298;2022-09-03T08:46:51;96049.53;;;20.02;98.22
39141;BME280;24875;48.436;10.298;2022-09-03T08:49:26;96043.41;;;20.01;94.63
39141;BME280;24875;48.436;10.298;2022-09-03T08:51:59;96053.22;;;20.12;95.30
39141;BME280;24875;48.436;10.298;2022-09-03T08:54:30;96031.94;;;20.33;95.21
39141;BME280;24875;48.436;10.298;2022-09-03T08:57:00;96035.50;;;20.39;95.17
39141;BME280;24875;48.436;10.298;2022-09-03T08:59:27;96032.88;;;20.27;97.65
39141;BME280;24875;48.436;10.298;2022-09-03T09:01:59;96037.22;;;20.45;93.76
39141;BME280;24875;48.436;10.298;2022-09-03T09:04:41;96033.56;;;20.34;95.16
39141;BME280;24875;48.436;10.298;2022-09-03T09:07:17;96030.88;;;20.34;96.66
39141;BME280;24875;48.436;10.298;2022-09-03T09:09:50;96034.19;;;20.25;97.99
39141;BME280;24875;48.436;10.298;2022-09-03T09:12:29;96033.03;;;20.21;97.48
39141;BME280;24875;48.436;10.298;2022-09-03T09:15:06;96035.47;;;20.22;97.62
39141;BME280;24875;48.436;10.298;2022-09-03T09:17:49;96034.19;;;20.25;98.81
39141;BME280;24875;48.436;10.298;2022-09-03T09:20:28;96032.72;;;20.34;94.85
39141;BME280;24875;48.436;10.298;2022-09-03T09:23:00;96044.22;;;20.18;93.09
39141;BME280;24875;48.436;10.298;2022-09-03T09:25:28;96039.56;;;19.97;92.55
39141;BME280;24875;48.436;10.298;2022-09-03T09:27:59;96037.13;;;19.84;95.56
39141;BME280;24875;48.436;10.298;2022-09-03T09:30:27;96044.25;;;19.79;95.08
39141;BME280;24875;48.436;10.298;2022-09-03T09:32:54;96051.16;;;19.63;94.83
39141;BME280;24875;48.436;10.298;2022-09-03T09:35:21;96055.09;;;19.72;94.06
39141;BME280;24875;48.436;10.298;2022-09-03T09:37:51;96047.16;;;19.77;94.77
39141;BME280;24875;48.436;10.298;2022-09-03T09:40:31;96054.69;;;19.92;96.18
39141;BME280;24875;48.436;10.298;2022-09-03T09:43:10;96044.81;;;20.20;96.29
39141;BME280;24875;48.436;10.298;2022-09-03T09:45:38;96043.28;;;20.24;97.03
39141;BME280;24875;48.436;10.298;2022-09-03T09:48:10;96047.50;;;20.53;94.04
39141;BME280;24875;48.436;10.298;2022-09-03T09:50:39;96046.56;;;20.59;93.42
39141;BME280;24875;48.436;10.298;2022-09-03T09:53:09;96030.19;;;20.88;93.51
39141;BME280;24875;48.436;10.298;2022-09-03T09:55:51;96040.03;;;21.20;95.63
39141;BME280;24875;48.436;10.298;2022-09-03T09:58:20;96030.44;;;21.24;89.68
39141;BME280;24875;48.436;10.298;2022-09-03T10:01:00;96031.03;;;21.69;89.73
39141;BME280;24875;48.436;10.298;2022-09-03T10:03:30;96035.09;;;21.50;85.29
39141;BME280;24875;48.436;10.298;2022-09-03T10:06:06;96035.41;;;21.75;86.02
39141;BME280;24875;48.436;10.298;2022-09-03T10:09:05;96045.06;;;21.97;86.32
39141;BME280;24875;48.436;10.298;2022-09-03T10:11:33;96033.78;;;21.74;90.47
39141;BME280;24875;48.436;10.298;2022-09-03T10:14:03;96030.09;;;21.80;88.01
39141;BME280;24875;48.436;10.298;2022-09-03T10:16:34;96024.22;;;21.83;87.82
39141;BME280;24875;48.436;10.298;2022-09-03T10:19:08;96022.31;;;22.26;86.34
39141;BME280;24875;48.436;10.298;2022-09-03T10:21:43;96034.56;;;22.43;85.16
39141;BME280;24875;48.436;10.298;2022-09-03T10:24:28;96034.63;;;22.48;81.49
39141;BME280;24875;48.436;10.298;2022-09-03T10:26:58;96026.75;;;22.73;85.78
39141;BME280;24875;48.436;10.298;2022-09-03T10:29:26;96027.53;;;23.00;82.00
39141;BME280;24875;48.436;10.298;2022-09-03T10:32:02;96024.75;;;23.26;81.00
39141;BME280;24875;48.436;10.298;2022-09-03T10:34:37;96030.75;;;22.70;77.65
39141;BME280;24875;48.436;10.298;2022-09-03T10:37:16;96041.13;;;22.88;80.00
39141;BME280;24875;48.436;10.298;2022-09-03T10:40:11;96026.88;;;23.24;79.73
39141;BME280;24875;48.436;10.298;2022-09-03T10:42:45;96035.88;;;22.72;76.97
39141;BME280;24875;48.436;10.298;2022-09-03T10:45:27;96029.25;;;23.16;77.46
39141;BME280;24875;48.436;10.298;2022-09-03T10:50:51;96025.44;;;23.07;73.31
39141;BME280;24875;48.436;10.298;2022-09-03T10:53:29;96023.16;;;22.94;80.57
39141;BME280;24875;48.436;10.298;2022-09-03T10:56:05;96016.94;;;23.25;76.37
39141;BME280;24875;48.436;10.298;2022-09-03T10:58:48;96014.78;;;23.27;71.75
39141;BME280;24875;48.436;10.298;2022-09-03T11:01:26;96013.81;;;23.42;72.65
39141;BME280;24875;48.436;10.298;2022-09-03T11:04:04;96007.25;;;23.24;73.87
39141;BME280;24875;48.436;10.298;2022-09-03T11:06:45;96010.94;;;23.13;71.77
39141;BME280;24875;48.436;10.298;2022-09-03T11:09:17;96007.19;;;22.77;74.38
39141;BME280;24875;48.436;10.298;2022-09-03T11:11:51;96000.00;;;23.29;76.83
39141;BME280;24875;48.436;10.298;2022-09-03T11:14:29;96005.03;;;23.67;73.72
39141;BME280;24875;48.436;10.298;2022-09-03T11:17:02;96001.97;;;24.14;72.58
39141;BME280;24875;48.436;10.298;2022-09-03T11:19:33;95995.31;;;24.56;69.31
39141;BME280;24875;48.436;10.298;2022-09-03T11:22:03;95997.75;;;24.73;68.69
39141;BME280;24875;48.436;10.298;2022-09-03T11:24:32;95986.41;;;24.91;70.92
39141;BME280;24875;48.436;10.298;2022-09-03T11:27:12;95986.97;;;24.88;66.41
39141;BME280;24875;48.436;10.298;2022-09-03T11:29:48;95976.72;;;24.80;67.30
39141;BME280;24875;48.436;10.298;2022-09-03T11:32:20;95972.13;;;25.10;68.85
39141;BME280;24875;48.436;10.298;2022-09-03T11:34:49;95965.34;;;25.13;64.67
39141;BME280;24875;48.436;10.298;2022-09-03T11:37:19;95967.72;;;25.34;64.68
39141;BME280;24875;48.436;10.298;2022-09-03T11:39:53;95963.22;;;25.10;64.42
39141;BME280;24875;48.436;10.298;2022-09-03T11:42:27;95961.88;;;25.07;62.88
39141;BME280;24875;48.436;10.298;2022-09-03T11:44:59;95966.19;;;24.93;62.23
39141;BME280;24875;48.436;10.298;2022-09-03T11:47:37;95955.91;;;25.20;60.28
39141;BME280;24875;48.436;10.298;2022-09-03T11:50:07;95954.53;;;25.22;64.83
39141;BME280;24875;48.436;10.298;2022-09-03T11:52:34;95947.34;;;24.78;64.87
39141;BME280;24875;48.436;10.298;2022-09-03T11:55:05;95954.06;;;24.86;63.23
39141;BME280;24875;48.436;10.298;2022-09-03T11:57:39;95958.28;;;25.36;63.21
39141;BME280;24875;48.436;10.298;2022-09-03T12:00:10;95959.44;;;25.16;58.33
39141;BME280;24875;48.436;10.298;2022-09-03T12:02:43;95966.69;;;25.15;59.24
39141;BME280;24875;48.436;10.298;2022-09-03T12:05:17;95965.66;;;25.06;63.66
39141;BME280;24875;48.436;10.298;2022-09-03T12:08:07;95971.56;;;25.03;63.46
39141;BME280;24875;48.436;10.298;2022-09-03T12:10:42;95989.13;;;24.71;64.64
39141;BME280;24875;48.436;10.298;2022-09-03T12:13:25;95993.66;;;24.36;66.15
39141;BME280;24875;48.436;10.298;2022-09-03T12:16:19;96001.22;;;24.29;67.77
39141;BME280;24875;48.436;10.298;2022-09-03T12:18:48;95990.03;;;23.76;70.16
39141;BME280;24875;48.436;10.298;2022-09-03T12:21:17;95988.69;;;23.73;67.41
39141;BME280;24875;48.436;10.298;2022-09-03T12:23:45;95992.56;;;23.51;70.52
39141;BME280;24875;48.436;10.298;2022-09-03T12:26:15;96004.66;;;23.38;67.99
39141;BME280;24875;48.436;10.298;2022-09-03T12:28:46;96013.19;;;23.30;66.09
39141;BME280;24875;48.436;10.298;2022-09-03T12:31:16;96023.88;;;23.16;65.50
39141;BME280;24875;48.436;10.298;2022-09-03T12:33:48;96037.25;;;23.06;67.43
39141;BME280;24875;48.436;10.298;2022-09-03T12:36:16;96070.47;;;22.11;72.50
39141;BME280;24875;48.436;10.298;2022-09-03T12:38:42;96073.41;;;21.13;78.05
39141;BME280;24875;48.436;10.298;2022-09-03T12:41:25;96085.94;;;20.03;90.17
39141;BME280;24875;48.436;10.298;2022-09-03T12:43:55;96073.34;;;19.25;96.58
39141;BME280;24875;48.436;10.298;2022-09-03T12:46:24;96065.03;;;18.69;100.00
39141;BME280;24875;48.436;10.298;2022-09-03T12:48:54;96060.72;;;18.45;100.00
39141;BME280;24875;48.436;10.298;2022-09-03T12:51:22;96062.69;;;18.38;100.00
39141;BME280;24875;48.436;10.298;2022-09-03T12:53:50;96067.03;;;18.62;100.00
39141;BME280;24875;48.436;10.298;2022-09-03T12:56:18;96065.66;;;18.71;100.00
39141;BME280;24875;48.436;10.298;2022-09-03T12:58:49;96055.91;;;19.11;100.00
39141;BME280;24875;48.436;10.298;2022-09-03T13:01:21;96041.91;;;19.43;100.00
39141;BME280;24875;48.436;10.298;2022-09-03T13:03:53;96042.75;;;19.71;100.00
39141;BME280;24875;48.436;10.298;2022-09-03T13:06:23;96042.16;;;19.92;100.00
39141;BME280;24875;48.436;10.298;2022-09-03T13:08:54;96043.25;;;20.08;100.00
39141;BME280;24875;48.436;10.298;2022-09-03T13:11:23;96048.63;;;20.24;99.64
39141;BME280;24875;48.436;10.298;2022-09-03T13:13:53;96063.50;;;20.04;98.00